Time;durP1;ratioP1;P1;durP2;ratioP2;P2;SDS_P1;SDS_P2;PMS_P1;PMS_P2;Temp;Humidity;BMP_temperature;BMP_pressure;BME280_temperature;BME280_humidity;BME280_pressure;Samples;Min_cycle;Max_cycle;Signal;HPM_P1;HPM_P2
2023/05/12 00:01:45;;;;;;;10.63;8.75;;;;;;;14.80;77.71;101515.50;5021580;28;20151;-62
2023/05/12 00:04:11;;;;;;;9.80;8.30;;;;;;;14.76;77.74;101508.75;5019663;28;20037;-62
2023/05/12 00:06:36;;;;;;;9.70;8.57;;;;;;;14.73;77.45;101503.69;5028685;28;20591;-62
2023/05/12 00:09:02;;;;;;;10.38;7.38;;;;;;;14.75;76.54;101507.09;5011390;28;20389;-62
2023/05/12 00:11:27;;;;;;;8.80;6.93;;;;;;;14.74;75.86;101505.41;5022494;28;20061;-62
2023/05/12 00:13:53;;;;;;;10.38;6.00;;;;;;;14.67;75.05;101508.41;5028815;28;20129;-62
2023/05/12 00:16:19;;;;;;;10.85;6.55;;;;;;;14.68;75.38;101506.44;5016583;28;20088;-62
2023/05/12 00:18:44;;;;;;;8.10;6.45;;;;;;;14.67;75.37;101502.81;5016602;28;20025;-62
2023/05/12 00:21:11;;;;;;;8.50;6.13;;;;;;;14.64;75.74;101510.88;5025706;28;20520;-62
2023/05/12 00:23:36;;;;;;;9.63;6.82;;;;;;;14.60;76.07;101491.00;5010925;28;20021;-62
2023/05/12 00:26:01;;;;;;;9.18;7.47;;;;;;;14.62;76.00;101499.97;5026313;28;20414;-62
2023/05/12 00:28:27;;;;;;;9.02;7.07;;;;;;;14.63;76.25;101495.22;5024967;28;20465;-62
2023/05/12 00:30:52;;;;;;;10.25;7.47;;;;;;;14.60;76.38;101501.34;5018744;28;20025;-62
2023/05/12 00:33:17;;;;;;;8.88;7.30;;;;;;;14.60;76.48;101495.75;5028720;28;20033;-62
2023/05/12 00:35:44;;;;;;;10.00;7.10;;;;;;;14.59;76.67;101497.72;5031550;28;20036;-62
2023/05/12 00:38:10;;;;;;;9.82;7.85;;;;;;;14.61;76.85;101500.22;5029966;28;20029;-62
2023/05/12 00:40:36;;;;;;;12.85;8.07;;;;;;;14.53;77.39;101489.53;5030514;28;20136;-62
2023/05/12 00:43:01;;;;;;;9.73;8.27;;;;;;;14.51;76.93;101495.41;5024649;28;20041;-62
2023/05/12 00:45:28;;;;;;;10.13;7.38;;;;;;;14.57;77.06;101497.13;5031099;28;20025;-62
2023/05/12 00:47:54;;;;;;;9.93;7.82;;;;;;;14.55;76.41;101490.13;5027814;28;20107;-62
2023/05/12 00:50:20;;;;;;;9.57;7.88;;;;;;;14.52;76.20;101499.88;5030702;28;20033;-62
2023/05/12 00:52:47;;;;;;;9.27;8.38;;;;;;;14.49;75.92;101492.84;5030581;28;20117;-62
2023/05/12 00:55:12;;;;;;;9.15;8.25;;;;;;;14.44;75.68;101498.34;5022041;28;20034;-62
2023/05/12 00:57:38;;;;;;;8.90;8.02;;;;;;;14.45;76.05;101488.88;5011960;28;20029;-62
2023/05/12 01:00:06;;;;;;;10.80;8.65;;;;;;;14.40;76.13;101490.78;5020103;28;20156;-62
2023/05/12 01:02:31;;;;;;;9.13;7.72;;;;;;;14.42;76.23;101495.00;5015059;28;20096;-62
2023/05/12 01:04:57;;;;;;;9.07;7.70;;;;;;;14.43;75.50;101487.47;5019055;28;20029;-62
2023/05/12 01:07:24;;;;;;;10.90;8.02;;;;;;;14.40;75.57;101485.19;5031520;28;20075;-62
2023/05/12 01:09:54;;;;;;;8.80;7.78;;;;;;;14.37;75.65;101486.53;5020745;28;20109;-62
2023/05/12 01:12:20;;;;;;;8.75;7.65;;;;;;;14.32;75.78;101489.28;5013076;28;20026;-62
2023/05/12 01:14:46;;;;;;;9.10;7.93;;;;;;;14.31;75.72;101483.97;5015466;28;20099;-62
2023/05/12 01:17:12;;;;;;;8.88;7.95;;;;;;;14.28;75.98;101478.91;5015249;28;20022;-62
2023/05/12 01:19:41;;;;;;;10.30;8.23;;;;;;;14.28;76.06;101481.72;5018703;28;20034;-63
2023/05/12 01:22:08;;;;;;;8.38;7.47;;;;;;;14.26;76.17;101479.16;5016638;28;20036;-63
2023/05/12 01:24:41;;;;;;;9.43;8.13;;;;;;;14.23;76.25;101474.97;5025499;28;20034;-63
2023/05/12 01:27:07;;;;;;;8.30;7.13;;;;;;;14.29;76.18;101477.81;5011017;28;20074;-62
2023/05/12 01:29:34;;;;;;;8.88;8.00;;;;;;;14.23;76.44;101474.13;5022669;28;20411;-63
2023/05/12 01:32:00;;;;;;;9.30;8.23;;;;;;;14.25;76.35;101472.75;5010732;28;20470;-63
2023/05/12 01:34:27;;;;;;;12.35;8.30;;;;;;;14.28;76.61;101465.78;5017170;28;20074;-63
2023/05/12 01:36:52;;;;;;;9.90;8.90;;;;;;;14.21;76.72;101460.41;5028718;28;20025;-63
2023/05/12 01:39:17;;;;;;;9.70;8.48;;;;;;;14.26;76.52;101468.00;5023487;28;20427;-63
2023/05/12 01:41:42;;;;;;;8.90;8.02;;;;;;;14.19;77.02;101464.59;5030614;28;20021;-62
2023/05/12 01:44:08;;;;;;;9.88;8.50;;;;;;;14.23;76.92;101462.97;5025905;28;20427;-63
2023/05/12 01:46:33;;;;;;;9.55;8.50;;;;;;;14.23;76.56;101463.78;5021511;28;20022;-62
2023/05/12 01:48:58;;;;;;;9.68;8.30;;;;;;;14.25;76.75;101469.94;5019361;28;20427;-62
2023/05/12 01:51:23;;;;;;;9.82;7.68;;;;;;;14.26;76.56;101459.63;5018657;28;20022;-63
2023/05/12 01:53:49;;;;;;;9.05;7.50;;;;;;;14.21;76.35;101454.81;5014225;28;20034;-63
2023/05/12 01:56:14;;;;;;;8.43;7.53;;;;;;;14.20;76.65;101469.06;5021593;28;20037;-63
2023/05/12 01:58:39;;;;;;;8.25;7.32;;;;;;;14.18;76.41;101458.13;5033463;28;20040;-63
2023/05/12 02:01:05;;;;;;;8.23;7.38;;;;;;;14.16;76.57;101456.72;5019981;28;20172;-63
2023/05/12 02:03:30;;;;;;;8.90;7.28;;;;;;;14.16;76.76;101453.94;5019708;28;20112;-63
2023/05/12 02:05:55;;;;;;;8.13;7.13;;;;;;;14.13;76.97;101457.25;5022217;28;20087;-63
2023/05/12 02:08:20;;;;;;;7.72;6.50;;;;;;;14.14;76.81;101444.97;5029192;28;20029;-63
2023/05/12 02:10:46;;;;;;;7.85;7.05;;;;;;;14.16;77.07;101456.72;5017652;28;20029;-63
2023/05/12 02:13:11;;;;;;;7.75;6.68;;;;;;;14.11;76.53;101451.94;5032269;28;20041;-62
2023/05/12 02:15:37;;;;;;;9.38;6.95;;;;;;;14.04;76.58;101442.94;5017551;28;20033;-63
2023/05/12 02:18:03;;;;;;;6.78;6.00;;;;;;;14.05;76.50;101449.34;5012578;28;20077;-63
2023/05/12 02:20:28;;;;;;;6.40;5.72;;;;;;;14.03;76.53;101444.03;5013700;28;20116;-63
2023/05/12 02:22:53;;;;;;;7.47;6.28;;;;;;;14.04;76.61;101439.28;5021993;28;20464;-63
2023/05/12 02:25:20;;;;;;;7.72;5.72;;;;;;;14.03;76.71;101438.44;5027862;28;20026;-63
2023/05/12 02:27:45;;;;;;;6.75;6.05;;;;;;;14.02;76.89;101444.28;5020870;28;20034;-63
2023/05/12 02:30:10;;;;;;;7.35;5.90;;;;;;;14.03;76.52;101432.00;5016973;28;20121;-63
2023/05/12 02:32:36;;;;;;;8.75;6.35;;;;;;;14.02;76.86;101433.13;5017105;28;20108;-63
2023/05/12 02:35:01;;;;;;;6.93;5.72;;;;;;;13.97;76.68;101434.75;5025714;28;20386;-63
2023/05/12 02:37:26;;;;;;;6.50;5.65;;;;;;;13.95;76.70;101428.59;5016862;28;20030;-63
2023/05/12 02:39:51;;;;;;;6.22;5.63;;;;;;;13.98;77.19;101432.78;5012617;28;20084;-63
2023/05/12 02:42:17;;;;;;;6.18;5.13;;;;;;;13.97;76.74;101426.38;5012685;28;20037;-63
2023/05/12 02:44:42;;;;;;;5.00;4.43;;;;;;;13.98;76.75;101427.22;5011982;28;20519;-63
2023/05/12 02:47:07;;;;;;;5.85;5.03;;;;;;;13.93;76.82;101421.59;5014152;28;20037;-63
2023/05/12 02:49:32;;;;;;;5.40;4.90;;;;;;;13.95;77.02;101417.44;5023163;28;20490;-63
2023/05/12 02:51:58;;;;;;;5.68;4.65;;;;;;;13.94;76.97;101415.72;5027619;28;20041;-63
2023/05/12 02:54:23;;;;;;;5.80;4.72;;;;;;;13.93;77.21;101414.03;5031123;28;20036;-63
2023/05/12 02:56:48;;;;;;;6.03;4.05;;;;;;;13.89;76.96;101412.03;5016511;28;20052;-63
2023/05/12 02:59:13;;;;;;;6.05;4.15;;;;;;;13.86;77.10;101405.03;5012396;28;20053;-64
2023/05/12 03:01:39;;;;;;;4.93;3.80;;;;;;;13.88;77.14;101411.22;5015382;28;20033;-63
2023/05/12 03:04:04;;;;;;;5.13;4.10;;;;;;;13.91;76.96;101407.91;5015400;28;20440;-63
2023/05/12 03:06:29;;;;;;;4.00;3.60;;;;;;;13.82;77.21;101412.25;5024128;28;20035;-62
2023/05/12 03:08:55;;;;;;;3.65;3.35;;;;;;;13.87;76.87;101411.44;5011923;28;20084;-63
2023/05/12 03:11:23;;;;;;;3.88;3.50;;;;;;;13.80;77.70;101402.47;5013123;28;20100;-62
2023/05/12 03:13:48;;;;;;;3.58;3.25;;;;;;;13.85;77.43;101406.16;5014532;28;20452;-63
2023/05/12 03:16:15;;;;;;;3.20;2.90;;;;;;;13.82;77.42;101403.88;5014326;28;20108;-63
2023/05/12 03:18:41;;;;;;;3.30;3.00;;;;;;;13.82;77.46;101406.66;5017765;28;20490;-63
2023/05/12 03:21:06;;;;;;;5.03;2.92;;;;;;;13.81;77.26;101399.41;5023369;28;20026;-62
2023/05/12 03:23:31;;;;;;;3.10;2.80;;;;;;;13.81;77.41;101391.03;5013313;28;20086;-63
2023/05/12 03:25:57;;;;;;;2.90;2.70;;;;;;;13.81;77.53;101381.81;5023916;28;20036;-62
2023/05/12 03:28:23;;;;;;;2.70;2.50;;;;;;;13.81;77.47;101388.25;5023833;28;20041;-63
2023/05/12 03:30:48;;;;;;;4.75;3.30;;;;;;;13.75;77.38;101378.13;5024884;28;20034;-63
2023/05/12 03:33:14;;;;;;;3.45;3.10;;;;;;;13.73;77.52;101383.13;5029747;28;20044;-62
2023/05/12 03:35:39;;;;;;;3.92;3.20;;;;;;;13.74;77.55;101376.44;5015968;28;20133;-62
2023/05/12 03:38:04;;;;;;;4.70;3.35;;;;;;;13.70;78.04;101381.69;5012724;28;20069;-63
2023/05/12 03:40:30;;;;;;;4.00;3.70;;;;;;;13.70;78.21;101372.47;5012950;28;20060;-63
2023/05/12 03:42:55;;;;;;;4.82;4.25;;;;;;;13.67;77.87;101382.22;5011388;28;20068;-63
2023/05/12 03:45:20;;;;;;;6.05;4.53;;;;;;;13.72;77.99;101378.66;5018295;28;20466;-63
2023/05/12 03:47:46;;;;;;;6.00;4.35;;;;;;;13.75;77.76;101373.41;5012231;28;20033;-63
2023/05/12 03:50:11;;;;;;;5.65;4.85;;;;;;;13.75;78.13;101372.53;5028081;28;20018;-63
2023/05/12 03:52:37;;;;;;;5.70;4.68;;;;;;;13.71;77.95;101382.53;5031896;28;20025;-63
2023/05/12 03:55:06;;;;;;;5.95;5.32;;;;;;;13.68;77.77;101374.72;5032131;28;20535;-63
2023/05/12 03:57:33;;;;;;;6.40;5.35;;;;;;;13.66;77.95;101368.53;5031346;28;20496;-63
2023/05/12 03:59:58;;;;;;;7.28;5.97;;;;;;;13.70;78.35;101375.28;5029647;28;20443;-62
2023/05/12 04:02:24;;;;;;;7.40;5.45;;;;;;;13.73;78.39;101380.34;5023049;28;20121;-63
2023/05/12 04:04:49;;;;;;;6.40;5.63;;;;;;;13.71;78.38;101375.00;5025216;28;20033;-63
2023/05/12 04:07:14;;;;;;;7.97;6.78;;;;;;;13.68;78.68;101367.19;5013066;28;20037;-63
2023/05/12 04:09:40;;;;;;;9.85;6.85;;;;;;;13.74;78.43;101365.28;5012257;28;20466;-63
2023/05/12 04:12:05;;;;;;;7.38;6.07;;;;;;;13.73;78.48;101358.84;5018930;28;20483;-64
2023/05/12 04:14:31;;;;;;;8.38;7.07;;;;;;;13.75;78.54;101367.81;5011479;28;20096;-64
2023/05/12 04:16:57;;;;;;;8.55;7.18;;;;;;;13.74;78.41;101371.69;5012741;28;20022;-61
2023/05/12 04:19:22;;;;;;;13.55;7.13;;;;;;;13.67;78.42;101370.22;5011078;28;20037;-63
2023/05/12 04:21:48;;;;;;;10.50;7.78;;;;;;;13.70;78.53;101367.75;5011864;28;20105;-63
2023/05/12 04:24:13;;;;;;;10.57;8.63;;;;;;;13.65;79.00;101367.69;5011824;28;20034;-63
2023/05/12 04:26:38;;;;;;;10.50;8.18;;;;;;;13.67;79.19;101370.22;5010150;28;20045;-63
2023/05/12 04:29:04;;;;;;;10.88;8.88;;;;;;;13.67;79.11;101371.03;5014343;28;20719;-63
2023/05/12 04:31:29;;;;;;;14.30;9.88;;;;;;;13.66;78.87;101365.75;5024948;28;20087;-63
2023/05/12 04:33:54;;;;;;;12.77;9.13;;;;;;;13.61;79.30;101371.28;5031828;28;20029;-63
2023/05/12 04:36:20;;;;;;;11.85;9.55;;;;;;;13.64;79.41;101360.44;5029868;28;20036;-62
2023/05/12 04:38:45;;;;;;;12.35;9.25;;;;;;;13.60;79.34;101359.28;5030817;28;20021;-63
2023/05/12 04:41:11;;;;;;;13.27;10.02;;;;;;;13.59;79.74;101363.16;5024308;28;20053;-63
2023/05/12 04:43:36;;;;;;;15.82;11.13;;;;;;;13.66;79.27;101360.16;5011431;28;20034;-63
2023/05/12 04:46:01;;;;;;;14.48;11.02;;;;;;;13.63;79.63;101355.94;5010961;28;20076;-63
2023/05/12 04:48:28;;;;;;;16.10;11.20;;;;;;;13.65;79.56;101361.28;5011424;28;20036;-63
2023/05/12 04:50:53;;;;;;;18.30;11.82;;;;;;;13.63;79.57;101371.84;5011549;28;20033;-63
2023/05/12 04:53:18;;;;;;;17.58;12.32;;;;;;;13.64;79.68;101374.38;5011155;28;20088;-63
2023/05/12 04:55:44;;;;;;;17.38;11.70;;;;;;;13.62;80.41;101373.78;5011577;28;20108;-63
2023/05/12 04:58:12;;;;;;;17.08;12.57;;;;;;;13.61;80.16;101368.47;5011137;28;20092;-63
2023/05/12 05:00:37;;;;;;;17.20;12.20;;;;;;;13.57;80.30;101362.59;5008637;28;20092;-63
2023/05/12 05:03:03;;;;;;;16.85;12.88;;;;;;;13.63;80.14;101374.63;5011725;28;20021;-62
2023/05/12 05:05:28;;;;;;;17.95;13.35;;;;;;;13.61;80.36;101374.06;5009889;28;20108;-63
2023/05/12 05:07:53;;;;;;;18.52;14.27;;;;;;;13.63;80.45;101369.03;5020000;28;20084;-63
2023/05/12 05:10:18;;;;;;;21.13;15.32;;;;;;;13.55;80.46;101383.47;5023359;28;20068;-62
2023/05/12 05:12:44;;;;;;;18.88;14.50;;;;;;;13.57;80.57;101381.25;5009276;28;20033;-62
2023/05/12 05:15:10;;;;;;;23.35;15.93;;;;;;;13.55;80.67;101391.81;5010516;28;20060;-62
2023/05/12 05:17:35;;;;;;;22.50;16.67;;;;;;;13.58;80.88;101388.53;5011935;28;20048;-62
2023/05/12 05:20:01;;;;;;;21.63;16.33;;;;;;;13.56;81.29;101386.00;5010559;28;20037;-62
2023/05/12 05:22:26;;;;;;;22.98;16.50;;;;;;;13.59;81.40;101385.47;5008207;28;20050;-61
2023/05/12 05:24:51;;;;;;;25.42;17.10;;;;;;;13.61;81.37;101382.44;5019283;28;20025;-61
2023/05/12 05:27:17;;;;;;;25.13;17.20;;;;;;;13.60;81.23;101386.31;5016023;28;20033;-61
2023/05/12 05:29:42;;;;;;;25.23;18.63;;;;;;;13.56;81.55;101396.28;5019469;28;20026;-61
2023/05/12 05:32:07;;;;;;;25.67;18.92;;;;;;;13.62;81.67;101395.25;5011398;28;20029;-62
2023/05/12 05:34:32;;;;;;;27.95;20.25;;;;;;;13.58;81.45;101396.88;5020881;28;20026;-62
2023/05/12 05:36:58;;;;;;;24.75;19.00;;;;;;;13.55;81.80;101394.59;5015911;28;20034;-62
2023/05/12 05:39:24;;;;;;;25.92;19.48;;;;;;;13.61;81.32;101407.53;5029856;28;20030;-63
2023/05/12 05:41:49;;;;;;;28.42;19.88;;;;;;;13.58;81.89;101402.47;5026425;28;20052;-63
2023/05/12 05:44:14;;;;;;;29.17;19.85;;;;;;;13.61;81.63;101410.31;5017684;28;21678;-63
2023/05/12 05:46:40;;;;;;;29.95;21.27;;;;;;;13.60;82.23;101409.47;5014965;28;20026;-62
2023/05/12 05:49:05;;;;;;;34.25;22.80;;;;;;;13.61;82.23;101410.31;5009711;28;20021;-63
2023/05/12 05:51:32;;;;;;;29.90;21.30;;;;;;;13.61;82.18;101410.31;5009452;28;20034;-62
2023/05/12 05:53:57;;;;;;;28.92;21.23;;;;;;;13.65;82.51;101422.66;5017805;28;20524;-61
2023/05/12 05:56:23;;;;;;;32.40;21.95;;;;;;;13.59;82.57;101418.09;5018014;28;20040;-62
2023/05/12 05:58:48;;;;;;;30.05;21.70;;;;;;;13.66;82.34;101421.53;5017060;28;20029;-61
2023/05/12 06:01:14;;;;;;;30.75;21.60;;;;;;;13.68;82.20;101416.56;5012701;28;20099;-62
2023/05/12 06:03:39;;;;;;;29.30;21.80;;;;;;;13.70;82.32;101425.50;5011819;28;20080;-62
2023/05/12 06:06:05;;;;;;;29.40;22.63;;;;;;;13.70;82.26;101431.06;5016022;28;20389;-62
2023/05/12 06:08:31;;;;;;;30.33;21.88;;;;;;;13.70;82.37;101433.84;5012381;28;20029;-62
2023/05/12 06:10:56;;;;;;;29.08;22.50;;;;;;;13.69;82.79;101419.06;5011765;28;20603;-63
2023/05/12 06:13:21;;;;;;;30.73;22.67;;;;;;;13.71;82.68;101432.75;5013174;28;20091;-60
2023/05/12 06:15:47;;;;;;;31.75;22.80;;;;;;;13.71;82.67;101441.13;5016878;28;20865;-62
2023/05/12 06:18:12;;;;;;;31.80;23.02;;;;;;;13.68;83.04;101441.66;5011393;28;20026;-62
2023/05/12 06:20:37;;;;;;;31.98;22.63;;;;;;;13.67;83.33;101454.75;5013027;28;20606;-61
2023/05/12 06:23:03;;;;;;;33.25;23.25;;;;;;;13.70;83.49;101461.75;5008677;28;20022;-61
2023/05/12 06:25:28;;;;;;;31.02;23.60;;;;;;;13.70;83.43;101459.81;5009987;28;20025;-62
2023/05/12 06:27:53;;;;;;;32.83;23.55;;;;;;;13.75;83.67;101457.09;5018308;28;20030;-62
2023/05/12 06:30:19;;;;;;;24.58;18.85;;;;;;;13.86;84.91;101465.59;5016275;28;20041;-62
2023/05/12 06:32:44;;;;;;;35.28;24.67;;;;;;;13.84;83.97;101468.66;5013247;28;20034;-63
2023/05/12 06:35:09;;;;;;;29.30;23.33;;;;;;;13.84;83.87;101468.66;5011306;28;20021;-62
2023/05/12 06:37:35;;;;;;;32.28;24.05;;;;;;;13.82;84.32;101479.22;5022745;28;20103;-62
2023/05/12 06:40:00;;;;;;;34.80;27.17;;;;;;;13.81;84.45;101469.16;5021720;28;20065;-62
2023/05/12 06:42:25;;;;;;;34.58;25.00;;;;;;;13.77;84.88;101476.38;5013436;28;20393;-62
2023/05/12 06:44:51;;;;;;;34.30;25.98;;;;;;;13.74;85.09;101477.72;5018834;28;20037;-62
2023/05/12 06:47:16;;;;;;;33.67;25.98;;;;;;;13.76;84.95;101477.47;5013176;28;20078;-63
2023/05/12 06:49:41;;;;;;;31.88;24.80;;;;;;;13.80;85.21;101483.38;5016108;28;20029;-63
2023/05/12 06:52:06;;;;;;;31.40;25.67;;;;;;;13.80;85.04;101480.59;5022847;28;20054;-63
2023/05/12 06:54:32;;;;;;;29.65;25.27;;;;;;;13.80;85.48;101480.59;5016893;28;20034;-63
2023/05/12 06:56:57;;;;;;;28.80;23.98;;;;;;;13.81;85.58;101483.09;5013129;28;20024;-62
2023/05/12 06:59:22;;;;;;;27.42;23.80;;;;;;;13.85;85.35;101481.47;5014490;28;20147;-63
2023/05/12 07:01:48;;;;;;;27.17;23.60;;;;;;;13.87;85.08;101496.03;5015906;28;20034;-63
2023/05/12 07:04:13;;;;;;;27.58;23.10;;;;;;;13.90;85.69;101492.69;5012360;28;20437;-63
2023/05/12 07:06:38;;;;;;;26.58;23.83;;;;;;;13.92;84.90;101496.09;5014572;28;20033;-60
2023/05/12 07:09:04;;;;;;;28.05;23.90;;;;;;;13.94;85.79;101491.06;5012872;28;20367;-62
2023/05/12 07:11:29;;;;;;;26.35;23.55;;;;;;;14.03;85.09;101496.19;5017395;28;20041;-62
2023/05/12 07:13:55;;;;;;;27.00;24.13;;;;;;;14.06;85.20;101512.44;5014889;28;20452;-62
2023/05/12 07:16:20;;;;;;;26.70;23.92;;;;;;;14.05;84.43;101502.38;5013116;28;20108;-62
2023/05/12 07:18:46;;;;;;;27.90;24.92;;;;;;;14.05;84.28;101506.00;5016898;28;20112;-62
2023/05/12 07:21:12;;;;;;;25.38;22.67;;;;;;;14.08;83.80;101505.50;5021551;28;20392;-62
2023/05/12 07:23:38;;;;;;;24.33;21.80;;;;;;;14.08;83.93;101507.44;5031227;28;20025;-62
2023/05/12 07:26:05;;;;;;;24.40;21.90;;;;;;;14.10;84.00;101505.22;5021512;28;20100;-63
2023/05/12 07:28:34;;;;;;;21.85;19.60;;;;;;;14.12;83.14;101511.41;5011492;28;20041;-62
2023/05/12 07:31:00;;;;;;;20.30;18.42;;;;;;;14.14;82.24;101511.97;5011903;28;20056;-62
2023/05/12 07:33:26;;;;;;;20.63;18.60;;;;;;;14.14;81.75;101509.19;5012485;28;20034;-62
2023/05/12 07:35:51;;;;;;;19.20;17.40;;;;;;;14.17;82.31;101503.91;5020049;28;20041;-62
2023/05/12 07:38:16;;;;;;;20.52;18.38;;;;;;;14.20;82.67;101508.16;5012933;28;20018;-62
2023/05/12 07:40:43;;;;;;;18.63;16.90;;;;;;;14.30;82.55;101507.41;5028166;28;20022;-62
2023/05/12 07:43:08;;;;;;;19.00;17.17;;;;;;;14.39;82.66;101512.28;5017610;28;20022;-62
2023/05/12 07:45:34;;;;;;;18.88;15.02;;;;;;;14.48;82.00;101509.84;5014904;28;20389;-62
2023/05/12 07:48:00;;;;;;;14.60;13.30;;;;;;;14.57;80.59;101515.84;5025832;28;20791;-62
2023/05/12 07:50:25;;;;;;;14.45;13.15;;;;;;;14.67;80.92;101519.56;5016793;28;20032;-63
2023/05/12 07:52:52;;;;;;;13.23;11.93;;;;;;;14.70;79.67;101519.06;5012201;28;20038;-62
2023/05/12 07:55:19;;;;;;;12.68;11.48;;;;;;;14.71;79.32;101519.91;5013119;28;20718;-64
2023/05/12 07:57:45;;;;;;;12.57;11.43;;;;;;;14.69;78.83;101524.88;5011304;28;20068;-63
2023/05/12 08:00:11;;;;;;;13.25;12.00;;;;;;;14.70;78.93;101526.59;5009848;28;20481;-63
2023/05/12 08:02:37;;;;;;;13.52;12.18;;;;;;;14.73;79.17;101532.47;5018148;28;20371;-63
2023/05/12 08:05:03;;;;;;;12.68;11.38;;;;;;;14.76;79.01;101533.91;5017085;28;20048;-63
2023/05/12 08:07:28;;;;;;;12.50;11.38;;;;;;;14.81;79.01;101531.16;5025462;28;20033;-65
2023/05/12 08:09:54;;;;;;;12.18;10.98;;;;;;;14.86;77.54;101527.59;5026971;28;20388;-63
2023/05/12 08:12:19;;;;;;;11.65;10.52;;;;;;;14.85;77.57;101526.72;5027609;28;20076;-62
2023/05/12 08:14:45;;;;;;;12.90;10.25;;;;;;;14.87;77.44;101534.84;5011007;28;20096;-63
2023/05/12 08:17:10;;;;;;;12.07;10.90;;;;;;;14.85;76.66;101543.50;5014981;28;20030;-63
2023/05/12 08:19:36;;;;;;;10.30;9.40;;;;;;;14.89;76.68;101536.25;5019074;28;20473;-64
2023/05/12 08:22:01;;;;;;;10.55;9.55;;;;;;;14.95;76.90;101538.00;5020630;28;20044;-64
2023/05/12 08:24:27;;;;;;;10.60;9.60;;;;;;;15.01;75.21;101535.25;5023978;28;20034;-63
2023/05/12 08:26:52;;;;;;;10.73;9.73;;;;;;;15.03;74.97;101535.84;5013114;28;20021;-64
2023/05/12 08:29:17;;;;;;;10.48;9.48;;;;;;;15.07;75.70;101537.00;5013053;28;20037;-65
2023/05/12 08:31:43;;;;;;;11.85;10.65;;;;;;;15.09;77.00;101540.34;5010359;28;20105;-65
2023/05/12 08:34:08;;;;;;;11.50;10.40;;;;;;;15.14;76.51;101548.81;5013545;28;20045;-64
2023/05/12 08:36:34;;;;;;;11.43;10.32;;;;;;;15.13;76.26;101544.28;5015910;28;20030;-64
2023/05/12 08:39:00;;;;;;;11.60;10.50;;;;;;;15.21;76.42;101546.63;5011331;28;20109;-64
2023/05/12 08:41:51;;;;;;;9.52;8.73;;;;;;;15.30;76.00;101558.16;5010374;28;20062;-64
2023/05/12 08:44:17;;;;;;;9.02;8.07;;;;;;;15.34;73.32;101554.53;5009965;28;20034;-64
2023/05/12 08:46:43;;;;;;;13.93;7.80;;;;;;;15.40;73.84;101547.88;5009985;28;20089;-64
2023/05/12 08:49:11;;;;;;;9.25;6.97;;;;;;;15.47;73.26;101561.63;5011338;28;20021;-64
2023/05/12 08:51:37;;;;;;;8.80;6.03;;;;;;;15.55;72.50;101557.50;5018809;28;20049;-64
2023/05/12 08:54:03;;;;;;;7.75;6.90;;;;;;;15.60;73.20;101560.31;5016651;28;20033;-65
2023/05/12 08:56:29;;;;;;;6.95;6.15;;;;;;;15.60;73.04;101560.31;5015153;28;20033;-64
2023/05/12 08:58:55;;;;;;;6.88;6.20;;;;;;;15.61;72.57;101562.88;5014908;28;20104;-64
2023/05/12 09:01:21;;;;;;;6.45;5.85;;;;;;;15.61;71.77;101562.03;5010604;28;20350;-64
2023/05/12 09:03:47;;;;;;;7.70;5.45;;;;;;;15.61;71.62;101562.88;5011720;28;20033;-65
2023/05/12 09:06:13;;;;;;;5.90;5.03;;;;;;;15.63;70.08;101570.97;5006300;28;20143;-65
2023/05/12 09:08:39;;;;;;;5.47;4.82;;;;;;;15.65;70.40;101569.63;5012026;28;20120;-62
2023/05/12 09:11:04;;;;;;;6.68;4.95;;;;;;;15.71;69.92;101568.53;5017889;28;20113;-64
2023/05/12 09:14:07;;;;;;;9.13;4.95;;;;;;;15.78;71.02;101570.28;5028836;28;20125;-64
2023/05/12 09:16:47;;;;;;;5.10;4.60;;;;;;;15.87;69.77;101569.47;5009845;28;20044;-64
2023/05/12 09:19:18;;;;;;;5.85;5.22;;;;;;;15.98;70.68;101575.13;5010289;28;20071;-64
2023/05/12 09:21:43;;;;;;;5.57;4.57;;;;;;;16.04;69.91;101571.25;5009092;28;20025;-64
2023/05/12 09:24:08;;;;;;;4.70;4.20;;;;;;;16.04;68.54;101574.06;5022481;28;20037;-64
2023/05/12 09:26:48;;;;;;;5.53;4.35;;;;;;;16.02;68.79;101571.50;5019512;28;20385;-64
2023/05/12 09:29:15;;;;;;;4.93;4.47;;;;;;;16.01;67.90;101572.63;5018185;28;20025;-64
2023/05/12 09:31:49;;;;;;;4.97;4.32;;;;;;;16.06;68.71;101574.63;5012148;28;20057;-64
2023/05/12 09:34:14;;;;;;;5.13;4.50;;;;;;;16.17;68.25;101576.34;5009493;28;20029;-64
2023/05/12 09:36:40;;;;;;;5.57;5.07;;;;;;;16.34;68.21;101562.13;5009991;28;20032;-64
2023/05/12 09:39:07;;;;;;;5.10;4.47;;;;;;;16.45;69.32;101567.50;5017539;28;20386;-64
2023/05/12 09:41:40;;;;;;;5.13;4.70;;;;;;;16.50;67.77;101574.22;5009428;28;20069;-63
2023/05/12 09:44:07;;;;;;;5.00;4.60;;;;;;;16.47;66.50;101581.25;5009895;28;20034;-64
2023/05/12 09:46:32;;;;;;;5.50;5.00;;;;;;;16.43;66.39;101574.50;5010066;28;20080;-64
2023/05/12 09:48:58;;;;;;;6.53;4.03;;;;;;;16.39;65.58;101579.81;5008756;28;20038;-64
2023/05/12 09:51:25;;;;;;;4.57;4.18;;;;;;;16.42;65.52;101587.66;5009864;28;20050;-64
2023/05/12 09:53:51;;;;;;;5.47;4.40;;;;;;;16.40;65.42;101583.47;5010290;28;20030;-64
2023/05/12 09:56:17;;;;;;;4.28;3.33;;;;;;;16.37;64.20;101579.25;5011610;28;20069;-64
2023/05/12 09:58:47;;;;;;;4.53;4.13;;;;;;;16.39;65.61;101588.22;5010900;28;20034;-64
2023/05/12 10:01:15;;;;;;;4.15;3.80;;;;;;;16.41;65.04;101585.97;5015295;28;20548;-63
2023/05/12 10:03:41;;;;;;;3.42;3.13;;;;;;;16.40;65.40;101586.25;5019966;28;20029;-63
2023/05/12 10:06:11;;;;;;;3.35;3.05;;;;;;;16.43;66.10;101592.16;5020846;28;20030;-63
2023/05/12 10:08:43;;;;;;;4.20;3.55;;;;;;;16.50;64.79;101582.63;5018201;28;20040;-63
2023/05/12 10:11:08;;;;;;;3.17;2.88;;;;;;;16.58;64.73;101590.50;5017231;28;20030;-63
2023/05/12 10:13:33;;;;;;;3.53;3.20;;;;;;;16.66;64.50;101592.78;5024626;28;20405;-63
2023/05/12 10:15:59;;;;;;;4.93;2.90;;;;;;;16.69;63.23;101600.63;5017851;28;20026;-66
2023/05/12 10:18:25;;;;;;;4.50;3.20;;;;;;;16.76;62.77;101604.06;5025759;28;20059;-64
2023/05/12 10:20:52;;;;;;;3.67;3.38;;;;;;;16.77;62.18;101591.72;5015077;28;20068;-65
2023/05/12 10:23:18;;;;;;;4.05;3.30;;;;;;;16.83;63.00;101590.63;5018134;28;20025;-65
2023/05/12 10:25:44;;;;;;;5.55;4.15;;;;;;;16.89;62.72;101592.31;5019731;28;20036;-63
2023/05/12 10:28:10;;;;;;;6.03;3.92;;;;;;;16.98;62.99;101595.44;5018794;28;20033;-64
2023/05/12 10:30:39;;;;;;;4.50;4.10;;;;;;;17.09;63.34;101593.47;5014999;28;20030;-66
2023/05/12 10:33:07;;;;;;;4.28;3.70;;;;;;;17.22;62.74;101586.47;5027958;28;20053;-63
2023/05/12 10:35:34;;;;;;;4.82;3.35;;;;;;;17.32;60.21;101592.06;5020846;28;20033;-63
2023/05/12 10:38:03;;;;;;;6.80;3.40;;;;;;;17.34;59.70;101593.47;5024702;28;20029;-63
2023/05/12 10:40:28;;;;;;;5.72;3.67;;;;;;;17.34;61.11;101596.28;5013711;28;20758;-64
2023/05/12 10:42:58;;;;;;;3.75;3.17;;;;;;;17.33;60.10;101589.00;5021796;28;20033;-63
2023/05/12 10:45:23;;;;;;;3.58;3.28;;;;;;;17.38;60.67;101597.41;5013051;28;20113;-65
2023/05/12 10:47:49;;;;;;;4.03;3.40;;;;;;;17.43;60.70;101593.75;5012041;28;20049;-64
2023/05/12 10:50:25;;;;;;;3.85;3.42;;;;;;;17.53;61.68;101598.53;5032517;28;20033;-65
2023/05/12 10:52:55;;;;;;;4.25;3.08;;;;;;;17.60;59.94;101597.09;5016731;28;20029;-63
2023/05/12 10:55:34;;;;;;;3.80;2.60;;;;;;;17.77;60.59;101585.63;5015752;28;20033;-61
2023/05/12 10:58:05;;;;;;;3.67;2.60;;;;;;;17.91;59.15;101594.28;5017786;28;20778;-63
2023/05/12 11:00:31;;;;;;;5.97;3.30;;;;;;;17.94;57.07;101593.72;5022378;28;21370;-63
2023/05/12 11:02:56;;;;;;;3.10;2.67;;;;;;;17.90;57.93;101601.88;5019079;28;20067;-62
2023/05/12 11:05:33;;;;;;;3.38;3.08;;;;;;;17.86;59.56;101594.31;5012510;28;20512;-63
2023/05/12 11:07:58;;;;;;;5.13;3.97;;;;;;;17.77;58.45;101605.28;5016179;28;20053;-63
2023/05/12 11:10:23;;;;;;;4.20;3.80;;;;;;;17.69;58.52;101597.41;5013256;28;20072;-63
2023/05/12 11:12:49;;;;;;;6.15;4.30;;;;;;;17.63;60.26;101602.16;5012521;28;20482;-63
2023/05/12 11:15:15;;;;;;;5.40;4.90;;;;;;;17.54;59.78;101617.06;5012666;28;20157;-63